sensor_id;sensor_type;location;lat;lon;timestamp;pressure;altitude;pressure_sealevel;temperature;humidity
66857;BME280;53766;50.280;19.160;2023-07-31T00:00:58;98066.75;;;21.79;57.58
66857;BME280;53766;50.280;19.160;2023-07-31T00:03:27;98067.00;;;21.77;57.65
66857;BME280;53766;50.280;19.160;2023-07-31T00:05:55;98073.41;;;21.76;57.64
66857;BME280;53766;50.280;19.160;2023-07-31T00:08:22;98076.56;;;21.73;57.70
66857;BME280;53766;50.280;19.160;2023-07-31T00:10:53;98074.91;;;21.72;57.72
66857;BME280;53766;50.280;19.160;2023-07-31T00:13:20;98065.84;;;21.73;57.78
66857;BME280;53766;50.280;19.160;2023-07-31T00:15:48;98074.91;;;21.72;57.80
66857;BME280;53766;50.280;19.160;2023-07-31T00:18:15;98067.09;;;21.71;57.75
66857;BME280;53766;50.280;19.160;2023-07-31T00:20:43;98071.91;;;21.69;57.70
66857;BME280;53766;50.280;19.160;2023-07-31T00:23:10;98073.75;;;21.68;57.92
66857;BME280;53766;50.280;19.160;2023-07-31T00:25:38;98075.03;;;21.66;57.88
66857;BME280;53766;50.280;19.160;2023-07-31T00:28:05;98075.84;;;21.66;58.05
66857;BME280;53766;50.280;19.160;2023-07-31T00:30:33;98068.88;;;21.65;57.97
66857;BME280;53766;50.280;19.160;2023-07-31T00:33:00;98073.88;;;21.62;57.92
66857;BME280;53766;50.280;19.160;2023-07-31T00:35:28;98078.41;;;21.61;57.94
66857;BME280;53766;50.280;19.160;2023-07-31T00:37:57;98078.41;;;21.61;57.89
66857;BME280;53766;50.280;19.160;2023-07-31T00:40:25;98083.78;;;21.61;57.97
66857;BME280;53766;50.280;19.160;2023-07-31T00:42:52;98090.75;;;21.62;57.86
66857;BME280;53766;50.280;19.160;2023-07-31T00:45:21;98084.84;;;21.60;57.87
66857;BME280;53766;50.280;19.160;2023-07-31T00:47:50;98094.97;;;21.58;57.92
66857;BME280;53766;50.280;19.160;2023-07-31T00:50:18;98091.13;;;21.54;57.90
66857;BME280;53766;50.280;19.160;2023-07-31T00:52:46;98090.06;;;21.55;57.88
66857;BME280;53766;50.280;19.160;2023-07-31T00:55:13;98090.06;;;21.55;57.82
66857;BME280;53766;50.280;19.160;2023-07-31T00:57:41;98090.06;;;21.55;57.74
66857;BME280;53766;50.280;19.160;2023-07-31T01:00:10;98093.81;;;21.54;57.88
66857;BME280;53766;50.280;19.160;2023-07-31T01:02:38;98093.81;;;21.54;57.49
66857;BME280;53766;50.280;19.160;2023-07-31T01:05:06;98097.19;;;21.49;57.64
66857;BME280;53766;50.280;19.160;2023-07-31T01:10:21;98099.72;;;21.44;57.41
66857;BME280;53766;50.280;19.160;2023-07-31T01:12:51;98097.84;;;21.45;57.39
66857;BME280;53766;50.280;19.160;2023-07-31T01:15:20;98103.06;;;21.40;57.29
66857;BME280;53766;50.280;19.160;2023-07-31T01:17:48;98102.28;;;21.39;57.02
66857;BME280;53766;50.280;19.160;2023-07-31T01:20:22;98102.50;;;21.37;57.07
66857;BME280;53766;50.280;19.160;2023-07-31T01:28:36;98111.91;;;21.28;56.86
66857;BME280;53766;50.280;19.160;2023-07-31T01:31:08;98109.81;;;21.30;56.77
66857;BME280;53766;50.280;19.160;2023-07-31T01:33:38;98099.56;;;21.27;56.55
66857;BME280;53766;50.280;19.160;2023-07-31T01:36:07;98101.53;;;21.20;56.58
66857;BME280;53766;50.280;19.160;2023-07-31T01:38:34;98110.03;;;21.17;56.67
66857;BME280;53766;50.280;19.160;2023-07-31T01:41:02;98109.56;;;21.20;56.71
66857;BME280;53766;50.280;19.160;2023-07-31T01:43:29;98113.63;;;21.23;56.62
66857;BME280;53766;50.280;19.160;2023-07-31T01:45:57;98113.75;;;21.16;56.71
66857;BME280;53766;50.280;19.160;2023-07-31T01:48:24;98118.75;;;21.12;56.72
66857;BME280;53766;50.280;19.160;2023-07-31T01:50:52;98114.66;;;21.10;56.82
66857;BME280;53766;50.280;19.160;2023-07-31T01:53:19;98114.31;;;21.06;56.93
66857;BME280;53766;50.280;19.160;2023-07-31T01:55:47;98122.94;;;21.08;56.96
66857;BME280;53766;50.280;19.160;2023-07-31T01:58:14;98122.47;;;21.11;56.80
66857;BME280;53766;50.280;19.160;2023-07-31T02:00:42;98125.84;;;21.07;56.73
66857;BME280;53766;50.280;19.160;2023-07-31T02:03:09;98127.94;;;21.05;56.82
66857;BME280;53766;50.280;19.160;2023-07-31T02:05:47;98124.66;;;21.03;56.73
66857;BME280;53766;50.280;19.160;2023-07-31T02:08:15;98130.81;;;21.03;56.78
66857;BME280;53766;50.280;19.160;2023-07-31T02:10:43;98130.81;;;21.03;56.86
66857;BME280;53766;50.280;19.160;2023-07-31T02:13:10;98143.41;;;21.03;56.74
66857;BME280;53766;50.280;19.160;2023-07-31T02:15:38;98143.41;;;21.03;56.72
66857;BME280;53766;50.280;19.160;2023-07-31T02:18:05;98138.63;;;21.05;56.58
66857;BME280;53766;50.280;19.160;2023-07-31T02:20:34;98140.13;;;21.01;56.76
66857;BME280;53766;50.280;19.160;2023-07-31T02:23:02;98142.00;;;21.00;56.71
66857;BME280;53766;50.280;19.160;2023-07-31T02:25:30;98147.56;;;20.99;56.69
66857;BME280;53766;50.280;19.160;2023-07-31T02:27:57;98155.59;;;20.99;56.85
66857;BME280;53766;50.280;19.160;2023-07-31T02:30:25;98158.28;;;20.99;56.79
66857;BME280;53766;50.280;19.160;2023-07-31T02:32:52;98156.78;;;21.03;56.79
66857;BME280;53766;50.280;19.160;2023-07-31T02:35:20;98155.16;;;21.02;56.60
66857;BME280;53766;50.280;19.160;2023-07-31T02:37:47;98160.97;;;20.99;56.74
66857;BME280;53766;50.280;19.160;2023-07-31T02:40:15;98164.69;;;20.98;56.85
66857;BME280;53766;50.280;19.160;2023-07-31T02:42:43;98156.66;;;20.98;56.75
66857;BME280;53766;50.280;19.160;2023-07-31T02:45:11;98163.88;;;20.97;56.79
66857;BME280;53766;50.280;19.160;2023-07-31T02:47:38;98163.63;;;20.99;56.85
66857;BME280;53766;50.280;19.160;2023-07-31T02:50:06;98169.25;;;20.97;56.88
66857;BME280;53766;50.280;19.160;2023-07-31T02:52:33;98162.25;;;20.96;56.87
66857;BME280;53766;50.280;19.160;2023-07-31T02:55:01;98160.25;;;20.91;56.90
66857;BME280;53766;50.280;19.160;2023-07-31T02:57:29;98159.66;;;20.89;56.88
66857;BME280;53766;50.280;19.160;2023-07-31T02:59:56;98158.09;;;20.82;57.26
66857;BME280;53766;50.280;19.160;2023-07-31T03:02:24;98163.22;;;20.83;57.21
66857;BME280;53766;50.280;19.160;2023-07-31T03:04:51;98157.53;;;20.80;57.17
66857;BME280;53766;50.280;19.160;2023-07-31T03:07:19;98157.75;;;20.78;57.42
66857;BME280;53766;50.280;19.160;2023-07-31T03:09:46;98169.94;;;20.74;57.34
66857;BME280;53766;50.280;19.160;2023-07-31T03:12:14;98167.50;;;20.72;57.50
66857;BME280;53766;50.280;19.160;2023-07-31T03:14:41;98177.97;;;20.74;57.40
66857;BME280;53766;50.280;19.160;2023-07-31T03:17:09;98182.72;;;20.72;57.46
66857;BME280;53766;50.280;19.160;2023-07-31T03:19:36;98192.16;;;20.74;57.56
66857;BME280;53766;50.280;19.160;2023-07-31T03:22:04;98185.53;;;20.77;57.46
66857;BME280;53766;50.280;19.160;2023-07-31T03:24:32;98190.09;;;20.77;57.41
66857;BME280;53766;50.280;19.160;2023-07-31T03:26:59;98185.09;;;20.80;57.47
66857;BME280;53766;50.280;19.160;2023-07-31T03:29:27;98185.53;;;20.77;57.26
66857;BME280;53766;50.280;19.160;2023-07-31T03:31:54;98191.81;;;20.71;57.32
66857;BME280;53766;50.280;19.160;2023-07-31T03:34:22;98195.97;;;20.67;57.49
66857;BME280;53766;50.280;19.160;2023-07-31T03:36:50;98191.06;;;20.64;57.59
66857;BME280;53766;50.280;19.160;2023-07-31T03:39:18;98191.06;;;20.64;57.63
66857;BME280;53766;50.280;19.160;2023-07-31T03:41:45;98193.97;;;20.62;57.57
66857;BME280;53766;50.280;19.160;2023-07-31T03:44:13;98190.03;;;20.65;57.64
66857;BME280;53766;50.280;19.160;2023-07-31T03:46:40;98194.34;;;20.66;57.45
66857;BME280;53766;50.280;19.160;2023-07-31T03:49:09;98190.63;;;20.67;57.18
66857;BME280;53766;50.280;19.160;2023-07-31T03:51:36;98196.88;;;20.61;57.34
66857;BME280;53766;50.280;19.160;2023-07-31T03:54:04;98195.38;;;20.65;57.20
66857;BME280;53766;50.280;19.160;2023-07-31T03:56:31;98190.25;;;20.63;57.21
66857;BME280;53766;50.280;19.160;2023-07-31T03:59:02;98193.97;;;20.62;57.27
66857;BME280;53766;50.280;19.160;2023-07-31T04:01:30;98194.41;;;20.59;57.24
66857;BME280;53766;50.280;19.160;2023-07-31T04:03:57;98197.69;;;20.61;57.28
66857;BME280;53766;50.280;19.160;2023-07-31T04:06:25;98202.22;;;20.61;57.09
66857;BME280;53766;50.280;19.160;2023-07-31T04:08:52;98204.69;;;20.62;57.08
66857;BME280;53766;50.280;19.160;2023-07-31T04:11:19;98206.69;;;20.67;57.03
66857;BME280;53766;50.280;19.160;2023-07-31T04:13:47;98208.91;;;20.70;57.07
66857;BME280;53766;50.280;19.160;2023-07-31T04:16:15;98209.50;;;20.72;56.85
66857;BME280;53766;50.280;19.160;2023-07-31T04:18:42;98211.13;;;20.73;56.93
66857;BME280;53766;50.280;19.160;2023-07-31T04:21:10;98207.88;;;20.71;56.80
66857;BME280;53766;50.280;19.160;2023-07-31T04:23:38;98210.09;;;20.74;56.85
66857;BME280;53766;50.280;19.160;2023-07-31T04:26:05;98207.41;;;20.74;56.71
66857;BME280;53766;50.280;19.160;2023-07-31T04:28:33;98205.34;;;20.76;56.61
66857;BME280;53766;50.280;19.160;2023-07-31T04:31:00;98207.41;;;20.74;56.42
66857;BME280;53766;50.280;19.160;2023-07-31T04:33:28;98196.56;;;20.69;56.12
66857;BME280;53766;50.280;19.160;2023-07-31T04:35:55;98199.34;;;20.62;56.34
66857;BME280;53766;50.280;19.160;2023-07-31T04:38:23;98205.13;;;20.59;56.54
66857;BME280;53766;50.280;19.160;2023-07-31T04:40:50;98199.56;;;20.61;56.47
66857;BME280;53766;50.280;19.160;2023-07-31T04:43:18;98210.25;;;20.61;56.51
66857;BME280;53766;50.280;19.160;2023-07-31T04:45:46;98211.72;;;20.57;56.57
66857;BME280;53766;50.280;19.160;2023-07-31T04:48:17;98205.94;;;20.60;56.25
66857;BME280;53766;50.280;19.160;2023-07-31T04:50:45;98209.66;;;20.59;56.20
66857;BME280;53766;50.280;19.160;2023-07-31T04:53:12;98208.59;;;20.60;56.21
66857;BME280;53766;50.280;19.160;2023-07-31T04:55:40;98216.63;;;20.60;55.97
66857;BME280;53766;50.280;19.160;2023-07-31T04:58:07;98217.06;;;20.57;56.11
66857;BME280;53766;50.280;19.160;2023-07-31T05:00:35;98216.63;;;20.60;56.23
66857;BME280;53766;50.280;19.160;2023-07-31T05:03:02;98215.59;;;20.61;56.04
66857;BME280;53766;50.280;19.160;2023-07-31T05:05:30;98213.34;;;20.58;55.93
66857;BME280;53766;50.280;19.160;2023-07-31T05:07:58;98221.75;;;20.61;56.02
66857;BME280;53766;50.280;19.160;2023-07-31T05:10:25;98220.50;;;20.64;56.04
66857;BME280;53766;50.280;19.160;2023-07-31T05:12:53;98215.75;;;20.66;55.81
66857;BME280;53766;50.280;19.160;2023-07-31T05:15:20;98225.84;;;20.64;55.76
66857;BME280;53766;50.280;19.160;2023-07-31T05:17:48;98225.25;;;20.62;55.47
66857;BME280;53766;50.280;19.160;2023-07-31T05:20:15;98226.09;;;20.62;55.50
66857;BME280;53766;50.280;19.160;2023-07-31T05:22:43;98232.59;;;20.66;55.46
66857;BME280;53766;50.280;19.160;2023-07-31T05:25:10;98225.25;;;20.62;55.29
66857;BME280;53766;50.280;19.160;2023-07-31T05:27:38;98232.25;;;20.63;55.49
66857;BME280;53766;50.280;19.160;2023-07-31T05:30:06;98232.59;;;20.66;55.82
66857;BME280;53766;50.280;19.160;2023-07-31T05:32:34;98226.09;;;20.62;55.59
66857;BME280;53766;50.280;19.160;2023-07-31T05:35:01;98228.09;;;20.67;55.56
66857;BME280;53766;50.280;19.160;2023-07-31T05:37:29;98230.44;;;20.75;55.56
66857;BME280;53766;50.280;19.160;2023-07-31T05:39:56;98231.19;;;20.82;55.09
66857;BME280;53766;50.280;19.160;2023-07-31T05:42:24;98231.50;;;20.74;54.95
66857;BME280;53766;50.280;19.160;2023-07-31T05:44:51;98234.19;;;20.74;55.20
66857;BME280;53766;50.280;19.160;2023-07-31T05:47:19;98228.97;;;20.79;54.88
66857;BME280;53766;50.280;19.160;2023-07-31T05:49:47;98228.16;;;20.79;54.83
66857;BME280;53766;50.280;19.160;2023-07-31T05:52:15;98229.41;;;20.76;54.91
66857;BME280;53766;50.280;19.160;2023-07-31T05:54:43;98230.91;;;20.72;54.67
66857;BME280;53766;50.280;19.160;2023-07-31T05:57:10;98236.72;;;20.69;54.71
66857;BME280;53766;50.280;19.160;2023-07-31T05:59:38;98233.44;;;20.67;54.83
66857;BME280;53766;50.280;19.160;2023-07-31T06:02:06;98240.41;;;20.68;54.45
66857;BME280;53766;50.280;19.160;2023-07-31T06:04:33;98249.13;;;20.63;54.38
66857;BME280;53766;50.280;19.160;2023-07-31T06:07:01;98245.03;;;20.61;54.71
66857;BME280;53766;50.280;19.160;2023-07-31T06:09:29;98239.81;;;20.66;54.60
66857;BME280;53766;50.280;19.160;2023-07-31T06:11:56;98237.97;;;20.66;54.62
66857;BME280;53766;50.280;19.160;2023-07-31T06:14:24;98232.25;;;20.63;54.49
66857;BME280;53766;50.280;19.160;2023-07-31T06:16:51;98232.84;;;20.65;54.49
66857;BME280;53766;50.280;19.160;2023-07-31T06:19:19;98228.53;;;20.64;54.39
66857;BME280;53766;50.280;19.160;2023-07-31T06:21:47;98233.88;;;20.64;54.58
66857;BME280;53766;50.280;19.160;2023-07-31T06:24:15;98230.19;;;20.65;54.49
66857;BME280;53766;50.280;19.160;2023-07-31T06:26:46;98231.78;;;20.66;54.55
66857;BME280;53766;50.280;19.160;2023-07-31T06:29:13;98233.44;;;20.67;54.49
66857;BME280;53766;50.280;19.160;2023-07-31T06:31:41;98229.72;;;20.68;54.40
66857;BME280;53766;50.280;19.160;2023-07-31T06:34:09;98229.72;;;20.68;54.27
66857;BME280;53766;50.280;19.160;2023-07-31T06:36:36;98228.00;;;20.73;54.44
66857;BME280;53766;50.280;19.160;2023-07-31T06:39:04;98231.63;;;20.79;54.40
66857;BME280;53766;50.280;19.160;2023-07-31T06:41:32;98232.00;;;20.83;54.56
66857;BME280;53766;50.280;19.160;2023-07-31T06:43:59;98230.75;;;20.85;54.56
66857;BME280;53766;50.280;19.160;2023-07-31T06:46:27;98229.72;;;20.86;54.21
66857;BME280;53766;50.280;19.160;2023-07-31T06:48:55;98227.03;;;20.86;54.44
66857;BME280;53766;50.280;19.160;2023-07-31T06:51:22;98231.34;;;20.87;54.16
66857;BME280;53766;50.280;19.160;2023-07-31T06:53:50;98228.19;;;20.90;54.16
66857;BME280;53766;50.280;19.160;2023-07-31T06:56:17;98233.13;;;20.93;54.30
66857;BME280;53766;50.280;19.160;2023-07-31T06:58:45;98229.38;;;20.94;54.17
66857;BME280;53766;50.280;19.160;2023-07-31T07:01:12;98231.84;;;20.96;53.70
66857;BME280;53766;50.280;19.160;2023-07-31T07:03:40;98234.75;;;20.94;53.55
66857;BME280;53766;50.280;19.160;2023-07-31T07:06:07;98237.56;;;21.00;53.79
66857;BME280;53766;50.280;19.160;2023-07-31T07:08:35;98230.34;;;21.00;53.81
66857;BME280;53766;50.280;19.160;2023-07-31T07:11:02;98234.44;;;21.03;53.87
66857;BME280;53766;50.280;19.160;2023-07-31T07:13:30;98230.84;;;21.09;53.85
66857;BME280;53766;50.280;19.160;2023-07-31T07:15:57;98229.81;;;21.10;53.90
66857;BME280;53766;50.280;19.160;2023-07-31T07:18:25;98227.13;;;21.10;53.68
66857;BME280;53766;50.280;19.160;2023-07-31T07:20:53;98230.97;;;21.14;53.82
66857;BME280;53766;50.280;19.160;2023-07-31T07:23:21;98230.97;;;21.14;53.21
66857;BME280;53766;50.280;19.160;2023-07-31T07:25:48;98224.59;;;21.15;53.16
66857;BME280;53766;50.280;19.160;2023-07-31T07:28:16;98230.97;;;21.14;52.92
66857;BME280;53766;50.280;19.160;2023-07-31T07:30:43;98227.88;;;21.17;53.16
66857;BME280;53766;50.280;19.160;2023-07-31T07:33:11;98230.31;;;21.19;53.60
66857;BME280;53766;50.280;19.160;2023-07-31T07:35:39;98226.38;;;21.21;53.34
66857;BME280;53766;50.280;19.160;2023-07-31T07:38:07;98227.78;;;21.24;53.53
66857;BME280;53766;50.280;19.160;2023-07-31T07:40:41;98229.19;;;21.26;53.55
66857;BME280;53766;50.280;19.160;2023-07-31T07:43:08;98231.38;;;21.29;53.64
66857;BME280;53766;50.280;19.160;2023-07-31T07:45:36;98224.19;;;21.30;53.49
66857;BME280;53766;50.280;19.160;2023-07-31T07:48:04;98230.16;;;21.32;52.97
66857;BME280;53766;50.280;19.160;2023-07-31T07:50:31;98220.09;;;21.27;52.07
66857;BME280;53766;50.280;19.160;2023-07-31T07:52:59;98235.13;;;21.28;52.36
66857;BME280;53766;50.280;19.160;2023-07-31T07:55:27;98231.38;;;21.29;52.84
66857;BME280;53766;50.280;19.160;2023-07-31T07:57:54;98225.59;;;21.32;52.65
66857;BME280;53766;50.280;19.160;2023-07-31T08:00:22;98222.69;;;21.34;52.99
66857;BME280;53766;50.280;19.160;2023-07-31T08:02:49;98224.78;;;21.32;52.19
66857;BME280;53766;50.280;19.160;2023-07-31T08:05:17;98216.97;;;21.30;52.37
66857;BME280;53766;50.280;19.160;2023-07-31T08:07:45;98227.22;;;21.33;52.81
66857;BME280;53766;50.280;19.160;2023-07-31T08:10:12;98233.16;;;21.35;52.22
66857;BME280;53766;50.280;19.160;2023-07-31T08:12:40;98236.91;;;21.34;51.87
66857;BME280;53766;50.280;19.160;2023-07-31T08:15:08;98223.50;;;21.34;51.74
66857;BME280;53766;50.280;19.160;2023-07-31T08:17:36;98233.75;;;21.37;52.11
66857;BME280;53766;50.280;19.160;2023-07-31T08:20:03;98234.34;;;21.40;52.28
66857;BME280;53766;50.280;19.160;2023-07-31T08:22:32;98238.09;;;21.39;51.91
66857;BME280;53766;50.280;19.160;2023-07-31T08:24:59;98238.69;;;21.41;52.03
66857;BME280;53766;50.280;19.160;2023-07-31T08:27:27;98236.63;;;21.43;52.25
66857;BME280;53766;50.280;19.160;2023-07-31T08:29:54;98237.44;;;21.43;52.32
66857;BME280;53766;50.280;19.160;2023-07-31T08:32:22;98239.28;;;21.43;51.71
66857;BME280;53766;50.280;19.160;2023-07-31T08:34:49;98246.50;;;21.42;51.53
66857;BME280;53766;50.280;19.160;2023-07-31T08:37:17;98243.00;;;21.42;51.17
66857;BME280;53766;50.280;19.160;2023-07-31T08:39:44;98244.66;;;21.43;51.79
66857;BME280;53766;50.280;19.160;2023-07-31T08:42:12;98248.94;;;21.44;51.50
66857;BME280;53766;50.280;19.160;2023-07-31T08:44:39;98253.50;;;21.43;51.65
66857;BME280;53766;50.280;19.160;2023-07-31T08:47:07;98241.50;;;21.46;51.99
66857;BME280;53766;50.280;19.160;2023-07-31T08:49:37;98238.59;;;21.47;52.05
66857;BME280;53766;50.280;19.160;2023-07-31T08:52:06;98241.63;;;21.51;52.03
66857;BME280;53766;50.280;19.160;2023-07-31T08:54:33;98235.22;;;21.52;51.77
66857;BME280;53766;50.280;19.160;2023-07-31T08:57:01;98236.84;;;21.53;51.83
66857;BME280;53766;50.280;19.160;2023-07-31T08:59:30;98230.47;;;21.54;51.88
66857;BME280;53766;50.280;19.160;2023-07-31T09:02:05;98237.22;;;21.56;51.76
66857;BME280;53766;50.280;19.160;2023-07-31T09:04:34;98237.00;;;21.58;51.90
66857;BME280;53766;50.280;19.160;2023-07-31T09:07:03;98239.69;;;21.58;51.41
66857;BME280;53766;50.280;19.160;2023-07-31T09:09:31;98238.41;;;21.61;51.77
66857;BME280;53766;50.280;19.160;2023-07-31T09:11:59;98227.44;;;21.62;51.62
66857;BME280;53766;50.280;19.160;2023-07-31T09:14:27;98229.66;;;21.65;51.66
66857;BME280;53766;50.280;19.160;2023-07-31T09:16:57;98226.78;;;21.67;51.51
66857;BME280;53766;50.280;19.160;2023-07-31T09:19:29;98219.53;;;21.67;51.51
66857;BME280;53766;50.280;19.160;2023-07-31T09:21:57;98230.59;;;21.71;51.38
66857;BME280;53766;50.280;19.160;2023-07-31T09:24:29;98224.44;;;21.70;51.15
66857;BME280;53766;50.280;19.160;2023-07-31T09:26:59;98232.25;;;21.72;51.21
66857;BME280;53766;50.280;19.160;2023-07-31T09:29:28;98223.97;;;21.73;51.20
66857;BME280;53766;50.280;19.160;2023-07-31T09:31:57;98225.00;;;21.72;51.09
66857;BME280;53766;50.280;19.160;2023-07-31T09:34:44;98231.19;;;21.73;51.01
66857;BME280;53766;50.280;19.160;2023-07-31T09:37:11;98225.59;;;21.74;50.66
66857;BME280;53766;50.280;19.160;2023-07-31T09:39:46;98216.75;;;21.74;50.95
66857;BME280;53766;50.280;19.160;2023-07-31T09:42:24;98212.41;;;21.73;50.78
66857;BME280;53766;50.280;19.160;2023-07-31T09:44:51;98210.59;;;21.73;50.80
66857;BME280;53766;50.280;19.160;2023-07-31T09:47:23;98216.28;;;21.77;50.68
66857;BME280;53766;50.280;19.160;2023-07-31T09:49:52;98211.50;;;21.79;50.58
66857;BME280;53766;50.280;19.160;2023-07-31T09:52:20;98211.88;;;21.83;50.51
66857;BME280;53766;50.280;19.160;2023-07-31T09:54:47;98207.09;;;21.85;50.53
66857;BME280;53766;50.280;19.160;2023-07-31T09:57:16;98203.59;;;21.84;50.30
66857;BME280;53766;50.280;19.160;2023-07-31T09:59:47;98206.63;;;21.88;50.14
66857;BME280;53766;50.280;19.160;2023-07-31T10:02:21;98204.75;;;21.88;50.31
66857;BME280;53766;50.280;19.160;2023-07-31T10:04:50;98199.16;;;21.90;50.23
66857;BME280;53766;50.280;19.160;2023-07-31T10:07:18;98210.94;;;21.89;49.87
66857;BME280;53766;50.280;19.160;2023-07-31T10:09:48;98194.84;;;21.89;50.04
66857;BME280;53766;50.280;19.160;2023-07-31T10:12:19;98201.84;;;21.90;49.72
66857;BME280;53766;50.280;19.160;2023-07-31T10:14:47;98199.63;;;21.87;49.01
66857;BME280;53766;50.280;19.160;2023-07-31T10:17:15;98193.78;;;21.90;48.75
66857;BME280;53766;50.280;19.160;2023-07-31T10:19:44;98184.72;;;21.91;48.97
66857;BME280;53766;50.280;19.160;2023-07-31T10:22:13;98182.38;;;21.94;49.14
66857;BME280;53766;50.280;19.160;2023-07-31T10:24:52;98185.41;;;21.98;49.25
66857;BME280;53766;50.280;19.160;2023-07-31T10:27:21;98181.66;;;21.99;49.06
66857;BME280;53766;50.280;19.160;2023-07-31T10:29:49;98180.84;;;21.98;48.99
66857;BME280;53766;50.280;19.160;2023-07-31T10:32:18;98177.38;;;21.98;48.79
66857;BME280;53766;50.280;19.160;2023-07-31T10:34:47;98172.59;;;22.00;48.83
66857;BME280;53766;50.280;19.160;2023-07-31T10:37:27;98175.50;;;21.98;48.66
66857;BME280;53766;50.280;19.160;2023-07-31T10:40:01;98173.03;;;21.97;48.12
66857;BME280;53766;50.280;19.160;2023-07-31T10:42:35;98163.59;;;21.94;48.23
66857;BME280;53766;50.280;19.160;2023-07-31T10:45:05;98175.16;;;21.95;48.21
66857;BME280;53766;50.280;19.160;2023-07-31T10:50:29;98166.88;;;21.96;48.35
66857;BME280;53766;50.280;19.160;2023-07-31T10:52:57;98173.03;;;21.97;48.42
66857;BME280;53766;50.280;19.160;2023-07-31T10:55:41;98169.81;;;21.95;48.12
66857;BME280;53766;50.280;19.160;2023-07-31T10:58:13;98176.19;;;21.94;47.89
66857;BME280;53766;50.280;19.160;2023-07-31T11:00:43;98165.47;;;21.94;48.04
66857;BME280;53766;50.280;19.160;2023-07-31T11:03:17;98161.97;;;21.93;48.34
66857;BME280;53766;50.280;19.160;2023-07-31T11:05:53;98169.81;;;21.95;48.58
66857;BME280;53766;50.280;19.160;2023-07-31T11:08:28;98155.34;;;21.96;48.33
66857;BME280;53766;50.280;19.160;2023-07-31T11:13:30;98151.59;;;21.97;48.43
66857;BME280;53766;50.280;19.160;2023-07-31T11:15:59;98147.66;;;22.00;48.38
66857;BME280;53766;50.280;19.160;2023-07-31T11:18:27;98150.66;;;22.03;48.09
66857;BME280;53766;50.280;19.160;2023-07-31T11:20:55;98145.28;;;22.03;48.00
66857;BME280;53766;50.280;19.160;2023-07-31T11:23:23;98135.16;;;22.05;48.13
66857;BME280;53766;50.280;19.160;2023-07-31T11:25:50;98139.81;;;22.10;47.85
66857;BME280;53766;50.280;19.160;2023-07-31T11:28:19;98139.00;;;22.09;47.91
66857;BME280;53766;50.280;19.160;2023-07-31T11:30:47;98145.16;;;22.10;47.85
66857;BME280;53766;50.280;19.160;2023-07-31T11:33:14;98138.19;;;22.09;47.11
66857;BME280;53766;50.280;19.160;2023-07-31T11:35:47;98135.72;;;22.07;47.07
66857;BME280;53766;50.280;19.160;2023-07-31T11:38:22;98126.66;;;22.08;46.71
66857;BME280;53766;50.280;19.160;2023-07-31T11:40:55;98131.03;;;22.14;46.94
66857;BME280;53766;50.280;19.160;2023-07-31T11:43:24;98120.91;;;22.16;47.05
66857;BME280;53766;50.280;19.160;2023-07-31T11:45:56;98131.03;;;22.14;46.81
66857;BME280;53766;50.280;19.160;2023-07-31T11:48:28;98130.00;;;22.15;46.48
66857;BME280;53766;50.280;19.160;2023-07-31T11:50:58;98112.41;;;22.19;46.38
66857;BME280;53766;50.280;19.160;2023-07-31T11:53:30;98124.31;;;22.24;45.62
66857;BME280;53766;50.280;19.160;2023-07-31T11:56:00;98115.66;;;22.22;46.22
66857;BME280;53766;50.280;19.160;2023-07-31T11:58:31;98122.44;;;22.24;46.31
66857;BME280;53766;50.280;19.160;2023-07-31T12:00:59;98110.28;;;22.22;45.94
66857;BME280;53766;50.280;19.160;2023-07-31T12:03:27;98107.38;;;22.23;46.28
66857;BME280;53766;50.280;19.160;2023-07-31T12:05:55;98107.63;;;22.22;46.77
66857;BME280;53766;50.280;19.160;2023-07-31T12:08:23;98099.13;;;22.25;46.12
66857;BME280;53766;50.280;19.160;2023-07-31T12:10:53;98099.13;;;22.25;46.36
66857;BME280;53766;50.280;19.160;2023-07-31T12:13:22;98096.56;;;22.30;45.69
66857;BME280;53766;50.280;19.160;2023-07-31T12:15:58;98097.59;;;22.29;45.71
66857;BME280;53766;50.280;19.160;2023-07-31T12:18:29;98096.19;;;22.26;46.06
66857;BME280;53766;50.280;19.160;2023-07-31T12:20:59;98088.97;;;22.27;45.95
66857;BME280;53766;50.280;19.160;2023-07-31T12:23:29;98089.19;;;22.25;46.23
66857;BME280;53766;50.280;19.160;2023-07-31T12:26:05;98084.66;;;22.26;46.00
66857;BME280;53766;50.280;19.160;2023-07-31T12:28:37;98073.94;;;22.26;45.32
66857;BME280;53766;50.280;19.160;2023-07-31T12:31:08;98073.94;;;22.26;45.22
66857;BME280;53766;50.280;19.160;2023-07-31T12:33:37;98075.53;;;22.27;45.22
66857;BME280;53766;50.280;19.160;2023-07-31T12:36:14;98070.19;;;22.27;45.15
66857;BME280;53766;50.280;19.160;2023-07-31T12:38:42;98083.13;;;22.30;45.62
66857;BME280;53766;50.280;19.160;2023-07-31T12:41:10;98073.44;;;22.29;45.69
66857;BME280;53766;50.280;19.160;2023-07-31T12:43:40;98072.63;;;22.28;44.98
66857;BME280;53766;50.280;19.160;2023-07-31T12:46:08;98064.81;;;22.27;44.75
66857;BME280;53766;50.280;19.160;2023-07-31T12:48:39;98068.56;;;22.26;44.75
66857;BME280;53766;50.280;19.160;2023-07-31T12:51:07;98065.31;;;22.24;44.91
66857;BME280;53766;50.280;19.160;2023-07-31T12:53:35;98068.00;;;22.24;44.93
66857;BME280;53766;50.280;19.160;2023-07-31T12:56:03;98066.91;;;22.25;45.11
66857;BME280;53766;50.280;19.160;2023-07-31T12:58:31;98060.75;;;22.24;45.13
66857;BME280;53766;50.280;19.160;2023-07-31T13:00:58;98066.91;;;22.25;45.23
66857;BME280;53766;50.280;19.160;2023-07-31T13:03:26;98056.19;;;22.25;44.99
66857;BME280;53766;50.280;19.160;2023-07-31T13:05:54;98056.19;;;22.25;44.73
66857;BME280;53766;50.280;19.160;2023-07-31T13:08:21;98059.94;;;22.24;44.68
66857;BME280;53766;50.280;19.160;2023-07-31T13:10:49;98054.56;;;22.24;44.59